الصفحة الرئيسية
METAR-TAF:

METAR-TAF

مطار :

السلفادور, السلفادور

دائرة عرض: 13-26N, خط طول: 089-03W, ارتفاع: 25 متر

مراقبة الطقس الحالي

تاريخ ووقت الإصدار 1ساعة و 14 دقيقة قبل الساعة 02:50UTC
ريح 3 عقدة من الشمال/الشمال الشرقي, الاتجاه يتراوح بين الشمال و الشرق/الشمال الشرقي
درجة الحرارة 24°درجة مئوية
الرطوبة 69%
ضغط 1011 hPa
الرؤية 10 كم أو أكثر
الغيوم لا تقل 1500 م ولا وجود لمزنة ركامية السحاب الأسود

METAR: MSLP 240250Z 02003KT 350V070 CAVOK 24/18 Q1011 A2986 NOSIG

زمن: 22:04 (04:04 UTC)

توقعات

تاريخ ووقت الإصدار 6ساعات و 39 دقيقة قبل الساعة 21:25UTC
التوقعات صالحة من24 الساعة 00 UTC إلى 24 الساعة 24 UTC
ريح 3 عقدةمن اتجاهات متغيرة
الرؤية 10 كم أو أكثر
الغيوم لا تقل 1500 م ولا وجود لمزنة ركامية السحاب الأسود
من 24 الساعة 0300 UTC
ريح 7 عقدة من الشمال

TAF: MSLP 232125Z 2400/2424 VRB03KT CAVOK TX34/2418Z TN21/2410Z FM240300 01007KT

أرصاد الطقس والتوقعات من أكثر من 4000 مطار (تقارير الطقس للمطار METAR والتنبؤ بالطقس بالمطارTAF).

المحطات المتاحة هي النقط الصفراء والحمراء على الخريطة.

حرك المؤشر فوق النقطة لمعرفة اسم المحطة.

ثم انقر لمعرفة أرصاد وتوقعات الطقس.

لتغيير الخارطة: اضغط على الأزرار الخضراء مع رمز الصليب الأسود للتكبير. على الزر الأخضر مع شرطة للتصغير، أو على الأسهم الخضراء للخرائط المجاورة.


METAR-TAF: